Time;durP1;ratioP1;P1;durP2;ratioP2;P2;SDS_P1;SDS_P2;PMS_P1;PMS_P2;Temp;Humidity;BMP_temperature;BMP_pressure;BME280_temperature;BME280_humidity;BME280_pressure;Samples;Min_cycle;Max_cycle;Signal;HPM_P1;HPM_P2
2023/07/01 00:01:37;;;;;;;34.00;32.67;;;17.60;99.90;;;;;;5029742;28;20201;-66
2023/07/01 00:04:04;;;;;;;37.67;36.33;;;17.60;99.90;;;;;;5029889;28;20949;-66
2023/07/01 00:06:31;;;;;;;40.45;39.00;;;17.60;99.90;;;;;;5029751;28;20214;-65
2023/07/01 00:08:58;;;;;;;43.33;41.83;;;17.60;99.90;;;;;;5039437;22;20240;-63
2023/07/01 00:11:24;;;;;;;39.57;38.17;;;17.50;99.90;;;;;;5030161;28;20200;-65
2023/07/01 00:13:51;;;;;;;34.47;33.17;;;17.60;99.90;;;;;;5031249;28;20200;-66
2023/07/01 00:16:20;;;;;;;36.40;35.05;;;17.50;99.90;;;;;;5030923;28;20196;-66
2023/07/01 00:18:46;;;;;;;29.83;28.73;;;17.60;99.90;;;;;;5030347;28;20221;-66
2023/07/01 00:21:13;;;;;;;27.97;26.97;;;17.50;99.90;;;;;;5029573;28;20208;-67
2023/07/01 00:23:40;;;;;;;22.52;21.75;;;17.50;99.90;;;;;;5032295;28;20209;-70
2023/07/01 00:26:07;;;;;;;19.25;18.58;;;17.50;99.90;;;;;;5045288;28;20209;-65
2023/07/01 00:28:34;;;;;;;18.33;17.67;;;17.40;99.90;;;;;;5051408;28;20228;-66
2023/07/01 00:31:01;;;;;;;22.33;21.53;;;17.40;99.90;;;;;;5042083;28;20662;-66
2023/07/01 00:33:29;;;;;;;20.80;20.05;;;17.30;99.90;;;;;;5033955;28;20300;-66
2023/07/01 00:35:56;;;;;;;23.83;23.03;;;17.30;99.90;;;;;;5033287;28;20215;-67
2023/07/01 00:38:22;;;;;;;24.60;23.73;;;17.30;99.90;;;;;;5033908;28;20860;-66
2023/07/01 00:40:49;;;;;;;24.00;23.17;;;17.30;99.90;;;;;;5033166;28;20236;-66
2023/07/01 00:43:16;;;;;;;19.85;19.15;;;17.30;99.90;;;;;;5033505;28;20296;-65
2023/07/01 00:45:43;;;;;;;15.23;14.73;;;17.30;99.90;;;;;;5040783;28;20211;-66
2023/07/01 00:48:17;;;;;;;15.70;15.17;;;17.20;99.90;;;;;;5036353;28;20231;-66
2023/07/01 00:50:45;;;;;;;15.23;14.73;;;17.20;99.90;;;;;;5033765;28;20185;-65
2023/07/01 00:53:12;;;;;;;15.00;14.30;;;17.20;99.90;;;;;;5033993;28;20226;-64
2023/07/01 00:55:39;;;;;;;13.27;12.80;;;17.20;99.90;;;;;;5033006;28;20204;-67
2023/07/01 00:58:06;;;;;;;12.83;12.43;;;17.10;99.90;;;;;;5033028;28;20233;-65
2023/07/01 01:00:32;;;;;;;13.47;13.00;;;17.00;99.90;;;;;;5032416;28;20315;-67
2023/07/01 01:03:06;;;;;;;18.33;17.63;;;17.10;99.90;;;;;;5032586;28;20698;-65
2023/07/01 01:05:38;;;;;;;17.67;17.08;;;17.00;99.90;;;;;;5033140;28;20653;-65
2023/07/01 01:08:09;;;;;;;18.45;17.80;;;16.90;99.90;;;;;;5032774;28;20235;-65
2023/07/01 01:10:41;;;;;;;17.35;16.75;;;16.80;99.90;;;;;;5032131;28;20208;-65
2023/07/01 01:13:08;;;;;;;18.40;17.73;;;16.80;99.90;;;;;;5031656;28;20583;-64
2023/07/01 01:15:35;;;;;;;20.53;19.83;;;16.80;99.90;;;;;;5032823;28;20296;-66
2023/07/01 01:18:05;;;;;;;20.27;19.57;;;16.80;99.90;;;;;;5032392;28;20747;-65
2023/07/01 01:20:34;;;;;;;22.57;21.77;;;16.80;99.90;;;;;;5031619;28;20205;-65
2023/07/01 01:23:06;;;;;;;19.57;18.87;;;16.80;99.90;;;;;;5032446;28;20215;-66
2023/07/01 01:25:40;;;;;;;18.27;17.67;;;16.70;99.90;;;;;;5029635;28;20209;-66
2023/07/01 01:28:09;;;;;;;18.57;17.77;;;16.80;99.90;;;;;;5033171;28;20238;-65
2023/07/01 01:30:36;;;;;;;19.07;18.37;;;16.80;99.90;;;;;;5032067;28;20211;-66
2023/07/01 01:33:03;;;;;;;20.50;19.73;;;16.70;99.90;;;;;;5034155;28;20227;-65
2023/07/01 01:35:30;;;;;;;19.80;19.10;;;16.70;99.90;;;;;;5036589;28;20213;-65
2023/07/01 01:38:00;;;;;;;19.63;18.97;;;16.80;99.90;;;;;;5031764;28;20235;-65
2023/07/01 01:40:34;;;;;;;20.67;19.73;;;16.80;99.90;;;;;;5031502;28;20221;-66
2023/07/01 01:43:08;;;;;;;22.37;21.57;;;16.70;99.90;;;;;;5032009;28;20193;-64
2023/07/01 01:45:38;;;;;;;22.10;21.30;;;16.70;99.90;;;;;;5032571;28;20199;-65
2023/07/01 01:48:06;;;;;;;21.77;21.02;;;16.70;99.90;;;;;;5032709;28;20228;-64
2023/07/01 01:50:35;;;;;;;22.23;21.45;;;16.60;99.90;;;;;;5031980;28;20209;-66
2023/07/01 01:53:03;;;;;;;25.13;24.23;;;16.60;99.90;;;;;;5032374;28;20204;-65
2023/07/01 01:55:31;;;;;;;22.70;21.90;;;16.60;99.90;;;;;;5030986;28;20243;-65
2023/07/01 01:57:59;;;;;;;22.43;21.53;;;16.60;99.90;;;;;;5032233;28;20240;-65
2023/07/01 02:00:26;;;;;;;22.13;21.33;;;16.60;99.90;;;;;;5032063;28;20221;-66
2023/07/01 02:02:54;;;;;;;17.67;17.07;;;16.50;99.90;;;;;;5032199;28;20207;-66
2023/07/01 02:05:21;;;;;;;17.63;17.02;;;16.50;99.90;;;;;;5032720;28;20233;-66
2023/07/01 02:07:48;;;;;;;15.53;14.93;;;16.40;99.90;;;;;;5032302;28;20231;-66
2023/07/01 02:10:15;;;;;;;16.85;16.20;;;16.40;99.90;;;;;;5039827;28;20184;-67
2023/07/01 02:12:42;;;;;;;21.70;20.90;;;16.30;99.90;;;;;;5040978;28;20212;-66
2023/07/01 02:15:09;;;;;;;30.02;28.98;;;16.30;99.90;;;;;;5054343;28;20718;-67
2023/07/01 02:17:36;;;;;;;40.20;38.80;;;16.30;99.90;;;;;;5052623;28;20620;-66
2023/07/01 02:20:05;;;;;;;42.73;41.27;;;16.30;99.90;;;;;;5052181;28;20227;-67
2023/07/01 02:22:32;;;;;;;38.83;37.40;;;16.20;99.90;;;;;;5052353;28;20208;-67
2023/07/01 02:24:59;;;;;;;34.27;33.03;;;16.30;99.90;;;;;;5050132;28;20207;-66
2023/07/01 02:27:30;;;;;;;29.70;28.70;;;16.50;99.90;;;;;;5031085;28;20208;-66
2023/07/01 02:29:57;;;;;;;25.95;25.05;;;16.30;99.90;;;;;;5030510;28;20205;-64
2023/07/01 02:32:23;;;;;;;25.13;24.23;;;16.20;99.90;;;;;;5029988;28;20641;-64
2023/07/01 02:34:50;;;;;;;22.27;21.47;;;16.20;99.90;;;;;;5030579;28;20204;-66
2023/07/01 02:37:19;;;;;;;24.60;23.63;;;16.20;99.90;;;;;;5030969;28;20227;-67
2023/07/01 02:39:46;;;;;;;18.42;17.80;;;16.10;99.90;;;;;;5031129;28;20216;-65
2023/07/01 02:42:14;;;;;;;17.07;16.47;;;16.20;99.90;;;;;;5033032;28;20346;-65
2023/07/01 02:44:41;;;;;;;17.00;16.20;;;16.10;99.90;;;;;;5031220;28;20204;-67
2023/07/01 02:47:08;;;;;;;17.27;16.67;;;16.10;99.90;;;;;;5030568;28;20294;-66
2023/07/01 02:49:35;;;;;;;18.08;17.42;;;16.10;99.90;;;;;;5030534;28;20220;-65
2023/07/01 02:52:02;;;;;;;17.50;16.90;;;16.10;99.90;;;;;;5030731;28;20234;-65
2023/07/01 02:54:30;;;;;;;17.23;16.63;;;16.10;99.90;;;;;;5031453;28;20205;-65
2023/07/01 02:56:57;;;;;;;18.63;18.00;;;16.10;99.90;;;;;;5030984;28;20594;-65
2023/07/01 02:59:23;;;;;;;18.05;17.35;;;16.10;99.90;;;;;;5029472;28;20224;-64
2023/07/01 03:01:50;;;;;;;17.30;16.70;;;16.20;99.90;;;;;;5029966;28;20695;-66
2023/07/01 03:04:17;;;;;;;17.10;16.50;;;16.10;99.90;;;;;;5031621;28;20205;-65
2023/07/01 03:06:44;;;;;;;14.17;13.67;;;16.20;99.90;;;;;;5033281;28;20629;-67
2023/07/01 03:09:11;;;;;;;17.43;16.83;;;16.10;99.90;;;;;;5040643;28;20347;-66
2023/07/01 03:11:39;;;;;;;15.37;14.80;;;16.10;99.90;;;;;;5037585;28;20208;-67
2023/07/01 03:14:06;;;;;;;14.07;13.57;;;16.10;99.90;;;;;;5032629;28;20204;-67
2023/07/01 03:16:33;;;;;;;13.80;13.30;;;16.00;99.90;;;;;;5031941;28;20212;-66
2023/07/01 03:19:00;;;;;;;13.20;12.70;;;16.10;99.90;;;;;;5031171;28;20220;-65
2023/07/01 03:21:27;;;;;;;13.13;12.70;;;16.10;99.90;;;;;;5030302;28;20608;-66
2023/07/01 03:23:54;;;;;;;12.35;11.95;;;16.00;99.90;;;;;;5029802;28;20678;-67
2023/07/01 03:26:21;;;;;;;12.77;12.27;;;16.00;99.90;;;;;;5031241;28;20219;-66
2023/07/01 03:28:49;;;;;;;12.20;11.80;;;16.00;99.90;;;;;;5030851;28;20230;-65
2023/07/01 03:31:16;;;;;;;12.40;11.90;;;16.00;99.90;;;;;;5030115;28;20204;-65
2023/07/01 03:33:44;;;;;;;12.60;12.13;;;16.00;99.90;;;;;;5029880;28;20208;-65
2023/07/01 03:36:11;;;;;;;11.80;11.40;;;16.00;99.90;;;;;;5030541;28;20212;-66
2023/07/01 03:38:38;;;;;;;12.33;11.93;;;16.00;99.90;;;;;;5029819;28;20228;-64
2023/07/01 03:41:06;;;;;;;12.90;12.47;;;15.90;99.90;;;;;;5029573;28;20235;-66
2023/07/01 03:43:33;;;;;;;12.57;12.07;;;15.90;99.90;;;;;;5029835;28;20212;-65
2023/07/01 03:46:02;;;;;;;11.00;10.60;;;15.80;99.90;;;;;;5029959;28;20210;-66
2023/07/01 03:48:29;;;;;;;11.40;11.00;;;15.80;99.90;;;;;;5030251;28;20235;-66
2023/07/01 03:50:56;;;;;;;11.77;11.37;;;15.80;99.90;;;;;;5030201;28;20201;-67
2023/07/01 03:53:23;;;;;;;11.80;11.40;;;15.90;99.90;;;;;;5037620;28;20196;-65
2023/07/01 03:55:49;;;;;;;12.38;11.98;;;15.90;99.90;;;;;;5046438;28;20224;-66
2023/07/01 03:58:21;;;;;;;12.00;11.50;;;15.90;99.90;;;;;;5044913;28;20233;-65
2023/07/01 04:00:49;;;;;;;12.25;11.85;;;16.00;99.90;;;;;;5034161;28;20228;-64
2023/07/01 04:03:17;;;;;;;12.80;12.30;;;15.90;99.90;;;;;;5034557;28;20204;-66
2023/07/01 04:05:44;;;;;;;12.53;12.13;;;16.00;99.90;;;;;;5035222;28;20615;-66
2023/07/01 04:08:11;;;;;;;13.47;12.87;;;16.00;99.90;;;;;;5032876;28;20263;-66
2023/07/01 04:10:38;;;;;;;13.47;12.97;;;16.00;99.90;;;;;;5035116;28;20864;-66
2023/07/01 04:13:05;;;;;;;13.37;12.87;;;16.00;99.90;;;;;;5034718;28;20235;-66
2023/07/01 04:15:31;;;;;;;15.23;14.63;;;16.00;99.90;;;;;;5034332;28;20295;-67
2023/07/01 04:17:58;;;;;;;13.57;13.07;;;16.00;99.90;;;;;;5034288;28;20740;-65
2023/07/01 04:20:26;;;;;;;13.90;13.40;;;16.00;99.90;;;;;;5034054;28;20278;-66
2023/07/01 04:22:53;;;;;;;12.57;12.13;;;16.00;99.90;;;;;;5034566;28;20244;-66
2023/07/01 04:25:20;;;;;;;11.33;10.93;;;16.00;99.90;;;;;;5034923;28;20208;-65
2023/07/01 04:27:47;;;;;;;11.57;11.17;;;16.00;99.90;;;;;;5034045;28;20224;-68
2023/07/01 04:30:14;;;;;;;10.73;10.37;;;16.00;99.90;;;;;;5033674;28;20571;-66
2023/07/01 04:32:41;;;;;;;11.50;11.10;;;16.00;99.90;;;;;;5034094;28;20266;-66
2023/07/01 04:35:09;;;;;;;11.03;10.63;;;16.10;99.90;;;;;;5034464;28;20580;-67
2023/07/01 04:37:37;;;;;;;12.07;11.57;;;16.20;99.90;;;;;;5035242;28;20244;-66
2023/07/01 04:40:04;;;;;;;13.77;13.30;;;16.20;99.90;;;;;;5037858;28;20238;-65
2023/07/01 04:42:32;;;;;;;12.03;11.63;;;16.20;99.90;;;;;;5035828;28;20209;-66
2023/07/01 04:44:59;;;;;;;12.10;11.70;;;16.10;99.90;;;;;;5049634;28;20216;-65
2023/07/01 04:47:27;;;;;;;11.53;11.13;;;16.10;99.90;;;;;;5037498;28;20272;-66
2023/07/01 04:49:54;;;;;;;13.23;12.73;;;16.10;99.90;;;;;;5037260;28;20207;-65
2023/07/01 04:52:21;;;;;;;15.30;14.73;;;16.20;99.90;;;;;;5034937;28;20283;-65
2023/07/01 04:54:50;;;;;;;13.57;13.07;;;16.20;99.90;;;;;;5035387;28;20200;-65
2023/07/01 04:57:16;;;;;;;15.33;14.83;;;16.30;99.90;;;;;;5037334;28;20296;-66
2023/07/01 04:59:43;;;;;;;13.03;12.53;;;16.30;99.90;;;;;;5035148;28;20224;-65
2023/07/01 05:02:10;;;;;;;13.00;12.60;;;16.30;99.90;;;;;;5034078;28;20206;-66
2023/07/01 05:04:38;;;;;;;13.80;13.30;;;16.50;99.90;;;;;;5034110;28;20205;-66
2023/07/01 05:07:05;;;;;;;13.77;13.27;;;16.50;99.90;;;;;;5034968;28;20204;-66
2023/07/01 05:09:33;;;;;;;14.43;13.93;;;16.50;99.90;;;;;;5033301;28;20237;-67
2023/07/01 05:12:01;;;;;;;14.13;13.63;;;16.60;99.90;;;;;;5034749;28;20299;-65
2023/07/01 05:14:28;;;;;;;15.87;15.27;;;16.70;99.90;;;;;;5047478;28;20650;-65
2023/07/01 05:16:55;;;;;;;10.27;9.97;;;16.90;99.90;;;;;;5036286;28;20208;-58
2023/07/01 05:19:21;;;;;;;10.73;10.33;;;17.10;99.90;;;;;;5033843;28;20232;-58
2023/07/01 05:21:50;;;;;;;10.68;10.18;;;17.80;99.90;;;;;;5033109;28;20567;-59
2023/07/01 05:24:17;;;;;;;10.07;9.67;;;18.50;99.90;;;;;;5032253;28;20681;-60
2023/07/01 05:26:46;;;;;;;9.30;8.80;;;19.00;99.90;;;;;;5032248;28;20619;-59
2023/07/01 05:29:15;;;;;;;11.07;10.67;;;19.40;99.90;;;;;;5032008;28;20312;-59
2023/07/01 05:31:41;;;;;;;10.97;10.57;;;19.70;99.90;;;;;;5032647;28;20605;-59
2023/07/01 05:34:08;;;;;;;11.67;11.27;;;19.80;99.90;;;;;;5032417;28;20209;-59
2023/07/01 05:36:36;;;;;;;11.60;11.20;;;20.00;99.90;;;;;;5032492;28;20291;-58
2023/07/01 05:39:04;;;;;;;12.73;12.23;;;20.30;99.90;;;;;;5033375;28;20228;-60
2023/07/01 05:41:31;;;;;;;11.27;10.87;;;20.30;99.90;;;;;;5037858;28;20232;-59
2023/07/01 05:43:58;;;;;;;11.57;11.17;;;20.50;99.90;;;;;;5049653;28;20207;-60
2023/07/01 05:46:27;;;;;;;13.87;13.37;;;20.70;99.90;;;;;;5064584;28;20204;-58
2023/07/01 05:48:54;;;;;;;11.17;10.77;;;20.80;99.90;;;;;;5054576;28;20224;-58
2023/07/01 05:51:21;;;;;;;11.10;10.70;;;21.00;99.90;;;;;;5051419;28;20264;-59
2023/07/01 05:53:48;;;;;;;14.80;14.30;;;21.10;99.90;;;;;;5045094;28;20210;-59
2023/07/01 05:56:15;;;;;;;14.02;13.52;;;21.20;99.90;;;;;;5036432;28;20204;-59
2023/07/01 05:58:42;;;;;;;10.82;10.43;;;21.30;99.90;;;;;;5033122;28;20446;-60
2023/07/01 06:01:09;;;;;;;13.93;13.43;;;21.30;99.90;;;;;;5032529;28;20243;-58
2023/07/01 06:03:37;;;;;;;10.10;9.80;;;21.40;99.90;;;;;;5033389;28;20211;-58
2023/07/01 06:06:04;;;;;;;10.47;10.07;;;21.40;99.90;;;;;;5033228;28;20551;-59
2023/07/01 06:08:31;;;;;;;9.65;9.35;;;21.40;99.90;;;;;;5032912;28;20233;-66
2023/07/01 06:10:58;;;;;;;10.40;10.00;;;21.40;99.90;;;;;;5047441;22;20287;-65
2023/07/01 06:13:24;;;;;;;12.13;11.73;;;21.20;99.90;;;;;;5023803;28;20224;-66
2023/07/01 06:15:51;;;;;;;10.60;10.20;;;21.10;99.90;;;;;;5031265;28;20291;-67
2023/07/01 06:18:18;;;;;;;11.87;11.47;;;21.00;99.90;;;;;;5032403;28;20200;-67
2023/07/01 06:20:46;;;;;;;14.33;13.83;;;21.00;99.90;;;;;;5031601;28;20562;-67
2023/07/01 06:23:13;;;;;;;11.45;10.95;;;21.10;99.90;;;;;;5023610;28;20585;-66
2023/07/01 06:25:41;;;;;;;11.93;11.53;;;21.10;99.90;;;;;;5014209;28;20201;-65
2023/07/01 06:28:08;;;;;;;12.77;12.33;;;21.20;99.90;;;;;;5031234;28;20266;-67
2023/07/01 06:30:35;;;;;;;12.60;12.10;;;21.20;99.90;;;;;;5030443;28;20205;-66
2023/07/01 06:33:02;;;;;;;12.80;12.40;;;21.30;99.90;;;;;;5031055;28;20311;-65
2023/07/01 06:35:29;;;;;;;11.98;11.57;;;21.40;99.90;;;;;;5030856;28;20208;-66
2023/07/01 06:37:57;;;;;;;11.70;11.30;;;21.50;99.90;;;;;;5032648;28;20209;-66
2023/07/01 06:40:24;;;;;;;11.43;10.93;;;21.60;99.90;;;;;;5030121;28;20233;-68
2023/07/01 06:42:51;;;;;;;11.65;11.25;;;21.70;99.90;;;;;;5030925;28;20274;-67
2023/07/01 06:45:18;;;;;;;11.67;11.27;;;21.80;99.90;;;;;;5025838;28;20209;-66
2023/07/01 06:47:45;;;;;;;11.00;10.60;;;22.00;99.90;;;;;;5022266;28;20197;-67
2023/07/01 06:50:12;;;;;;;10.30;9.93;;;22.10;99.90;;;;;;5021879;28;20719;-66
2023/07/01 06:52:38;;;;;;;10.75;10.35;;;22.20;99.90;;;;;;5021943;28;20240;-66
2023/07/01 06:55:08;;;;;;;9.95;9.55;;;22.30;99.90;;;;;;5021790;28;20207;-66
2023/07/01 06:57:35;;;;;;;10.38;9.98;;;22.20;99.90;;;;;;5024059;28;20938;-66
2023/07/01 07:00:03;;;;;;;10.57;10.18;;;22.30;99.90;;;;;;5021029;28;20201;-67
2023/07/01 07:02:30;;;;;;;10.68;10.27;;;22.50;99.90;;;;;;5024165;28;20216;-66
2023/07/01 07:04:56;;;;;;;11.73;11.32;;;22.60;99.90;;;;;;5024087;28;20411;-66
2023/07/01 07:07:23;;;;;;;11.23;10.82;;;22.70;99.90;;;;;;5030217;28;20197;-66
2023/07/01 07:09:50;;;;;;;11.63;11.23;;;22.80;99.90;;;;;;5030335;28;20295;-68
2023/07/01 07:12:19;;;;;;;11.70;11.30;;;22.80;99.90;;;;;;5030398;28;20247;-66
2023/07/01 07:14:46;;;;;;;11.30;10.90;;;22.90;99.90;;;;;;5030312;28;20204;-68
2023/07/01 07:17:13;;;;;;;11.20;10.80;;;23.00;99.90;;;;;;5030473;28;20713;-68
2023/07/01 07:19:39;;;;;;;11.60;11.20;;;23.00;99.90;;;;;;5030979;28;20651;-65
2023/07/01 07:22:06;;;;;;;11.77;11.38;;;23.00;99.90;;;;;;5032185;28;20263;-67
2023/07/01 07:24:33;;;;;;;12.07;11.68;;;23.00;99.90;;;;;;5030255;28;20207;-67
2023/07/01 07:27:02;;;;;;;12.15;11.55;;;22.90;99.90;;;;;;5030483;28;20201;-67
2023/07/01 07:29:31;;;;;;;11.60;11.20;;;22.90;99.90;;;;;;5036965;28;20645;-69
2023/07/01 07:31:59;;;;;;;11.63;11.13;;;22.90;99.90;;;;;;5037365;28;20220;-67
2023/07/01 07:34:26;;;;;;;11.30;10.90;;;23.00;99.90;;;;;;5035676;28;20527;-67
2023/07/01 07:36:53;;;;;;;11.25;10.85;;;23.00;99.90;;;;;;5031476;28;20204;-68
2023/07/01 07:39:20;;;;;;;11.90;11.50;;;23.00;99.90;;;;;;5030677;28;20222;-67
2023/07/01 07:41:47;;;;;;;11.95;11.45;;;23.00;99.90;;;;;;5030688;28;20232;-68
2023/07/01 07:44:14;;;;;;;11.25;10.85;;;23.10;99.90;;;;;;5030596;28;20206;-67
2023/07/01 07:46:44;;;;;;;11.02;10.63;;;23.10;99.90;;;;;;5030041;28;20220;-67
2023/07/01 07:49:11;;;;;;;12.02;11.63;;;23.20;99.90;;;;;;5024694;28;20216;-67
2023/07/01 07:51:38;;;;;;;10.90;10.50;;;23.20;99.90;;;;;;5023219;28;20596;-68
2023/07/01 07:54:05;;;;;;;11.60;11.20;;;23.10;99.90;;;;;;5025936;28;20243;-70
2023/07/01 07:56:32;;;;;;;11.10;10.70;;;23.20;99.90;;;;;;5031446;28;20211;-69
2023/07/01 07:58:59;;;;;;;10.80;10.30;;;23.20;99.90;;;;;;5031828;28;20295;-68
2023/07/01 08:01:26;;;;;;;11.32;10.93;;;23.20;99.90;;;;;;5031512;28;20275;-69
2023/07/01 08:03:54;;;;;;;11.35;10.95;;;23.10;99.90;;;;;;5029888;28;20230;-69
2023/07/01 08:06:21;;;;;;;11.87;11.27;;;23.10;99.90;;;;;;5030727;28;20620;-66
2023/07/01 08:08:48;;;;;;;10.98;10.57;;;23.20;99.90;;;;;;5029148;28;20212;-69
2023/07/01 08:11:14;;;;;;;10.50;10.10;;;23.20;99.90;;;;;;5029004;28;20315;-67
2023/07/01 08:13:41;;;;;;;10.52;10.13;;;23.20;99.90;;;;;;5030093;28;20208;-67
2023/07/01 08:16:08;;;;;;;10.88;10.48;;;23.10;99.90;;;;;;5030717;28;20231;-67
2023/07/01 08:18:35;;;;;;;10.30;9.90;;;23.00;99.90;;;;;;5031766;28;20304;-69
2023/07/01 08:21:03;;;;;;;10.15;9.85;;;23.00;99.90;;;;;;5039380;28;20244;-66
2023/07/01 08:23:30;;;;;;;10.90;10.50;;;23.00;99.90;;;;;;5045328;28;20201;-67
2023/07/01 08:25:57;;;;;;;10.93;10.52;;;23.20;99.90;;;;;;5045747;28;20209;-67
2023/07/01 08:28:24;;;;;;;10.43;10.02;;;23.30;99.90;;;;;;5044039;28;20224;-66
2023/07/01 08:30:51;;;;;;;9.93;9.63;;;23.50;99.90;;;;;;5039695;28;20206;-66
2023/07/01 08:33:18;;;;;;;10.18;9.77;;;23.60;99.90;;;;;;5039510;28;20272;-66
2023/07/01 08:35:46;;;;;;;10.27;9.88;;;23.90;99.90;;;;;;5030338;28;20212;-66
2023/07/01 08:38:15;;;;;;;9.20;8.90;;;24.00;99.90;;;;;;5029159;28;20214;-65
2023/07/01 08:40:42;;;;;;;9.68;9.27;;;24.00;99.90;;;;;;5028310;28;20279;-67
2023/07/01 08:43:11;;;;;;;9.77;9.38;;;24.00;99.90;;;;;;5029253;28;20625;-66
2023/07/01 08:45:40;;;;;;;8.98;8.65;;;24.00;99.90;;;;;;5032707;28;20205;-66
2023/07/01 08:48:08;;;;;;;9.05;8.65;;;24.20;99.90;;;;;;5034714;28;20212;-67
2023/07/01 08:50:43;;;;;;;9.73;9.32;;;24.40;99.90;;;;;;5033789;28;20735;-67
2023/07/01 08:53:12;;;;;;;8.75;8.45;;;24.60;99.90;;;;;;5034900;28;20310;-67
2023/07/01 08:55:41;;;;;;;8.85;8.50;;;24.60;99.90;;;;;;5036861;28;20211;-68
2023/07/01 08:58:08;;;;;;;8.82;8.52;;;24.60;99.90;;;;;;5032292;28;20213;-66
2023/07/01 09:00:35;;;;;;;8.80;8.50;;;24.40;99.90;;;;;;5033643;28;20213;-67
2023/07/01 09:03:03;;;;;;;9.80;9.40;;;24.50;99.90;;;;;;5034590;28;20287;-66
2023/07/01 09:05:30;;;;;;;9.25;8.90;;;24.80;99.90;;;;;;5035400;28;20299;-66
2023/07/01 09:07:57;;;;;;;10.30;9.73;;;25.00;99.90;;;;;;5040478;28;20682;-67
2023/07/01 09:10:24;;;;;;;9.80;9.40;;;25.40;99.90;;;;;;5033471;28;20193;-66
2023/07/01 09:12:53;;;;;;;10.18;9.70;;;25.50;99.90;;;;;;5030516;28;20239;-66
2023/07/01 09:15:19;;;;;;;9.95;9.55;;;25.60;99.90;;;;;;5033551;28;20303;-67
2023/07/01 09:17:46;;;;;;;10.10;9.70;;;25.80;99.90;;;;;;5034077;28;20197;-68
2023/07/01 09:20:14;;;;;;;9.75;9.45;;;25.90;99.90;;;;;;5033204;28;20212;-67
2023/07/01 09:22:43;;;;;;;9.60;9.30;;;25.80;99.90;;;;;;5033187;28;20232;-67
2023/07/01 09:25:25;;;;;;;9.85;9.45;;;25.50;99.90;;;;;;5034687;28;20267;-66
2023/07/01 09:27:53;;;;;;;9.80;9.40;;;25.20;99.90;;;;;;5033671;28;20569;-67
2023/07/01 09:30:25;;;;;;;9.70;9.30;;;25.00;99.90;;;;;;5032736;28;20675;-68
2023/07/01 09:32:52;;;;;;;10.07;9.57;;;24.70;99.90;;;;;;5033195;28;20225;-68
2023/07/01 09:35:19;;;;;;;9.48;9.18;;;24.60;99.90;;;;;;5033560;28;20583;-67
2023/07/01 09:37:46;;;;;;;9.27;8.88;;;24.60;99.90;;;;;;5032921;28;20208;-66
2023/07/01 09:40:20;;;;;;;10.15;9.65;;;24.50;99.90;;;;;;5032050;28;20558;-65
2023/07/01 09:42:51;;;;;;;9.90;9.57;;;24.40;99.90;;;;;;5031981;28;20236;-66
2023/07/01 09:45:19;;;;;;;9.65;9.25;;;24.30;99.90;;;;;;5032520;28;20235;-66
2023/07/01 09:47:51;;;;;;;9.40;9.00;;;24.20;99.90;;;;;;5032511;28;20218;-68
2023/07/01 09:50:23;;;;;;;9.43;9.00;;;24.00;99.90;;;;;;5031725;28;20259;-67
2023/07/01 09:52:52;;;;;;;9.30;8.90;;;24.00;99.90;;;;;;5031923;28;20312;-67
2023/07/01 09:55:19;;;;;;;9.40;9.00;;;23.90;99.90;;;;;;5032230;28;20236;-65
2023/07/01 09:57:47;;;;;;;9.63;9.32;;;24.00;99.90;;;;;;5033665;28;20219;-66
2023/07/01 10:00:15;;;;;;;9.30;9.00;;;23.90;99.90;;;;;;5034910;28;20212;-66
2023/07/01 10:02:45;;;;;;;9.10;8.80;;;24.00;99.90;;;;;;5031650;28;20710;-66
2023/07/01 10:05:13;;;;;;;9.10;8.80;;;24.10;99.90;;;;;;5031862;28;20208;-68
2023/07/01 10:07:40;;;;;;;9.65;9.25;;;24.10;99.90;;;;;;5030782;28;20216;-66
2023/07/01 10:10:11;;;;;;;9.10;8.80;;;24.20;99.90;;;;;;5032681;28;20235;-67
2023/07/01 10:12:40;;;;;;;9.38;9.07;;;24.30;99.90;;;;;;5031065;28;20228;-68
2023/07/01 10:15:09;;;;;;;9.18;8.88;;;24.40;99.90;;;;;;5031359;28;20266;-66
2023/07/01 10:17:48;;;;;;;9.50;9.10;;;24.40;99.90;;;;;;5032896;28;20228;-66
2023/07/01 10:20:29;;;;;;;9.55;9.15;;;24.40;99.90;;;;;;5031852;28;20204;-67
2023/07/01 10:22:57;;;;;;;9.13;8.82;;;24.30;99.90;;;;;;5031933;28;20247;-66
2023/07/01 10:25:31;;;;;;;9.20;8.90;;;24.20;99.90;;;;;;5032066;28;20719;-67
2023/07/01 10:28:09;;;;;;;8.82;8.52;;;24.20;99.90;;;;;;5031714;28;20214;-66
2023/07/01 10:31:13;;;;;;;9.23;8.93;;;24.00;99.90;;;;;;5030985;28;20707;-68
2023/07/01 10:33:54;;;;;;;8.90;8.60;;;23.90;99.90;;;;;;5031929;28;20579;-67
2023/07/01 10:36:21;;;;;;;9.27;8.80;;;23.90;99.90;;;;;;5032361;28;20189;-66
2023/07/01 10:38:48;;;;;;;9.48;9.07;;;23.90;99.90;;;;;;5032239;28;20230;-67
2023/07/01 10:41:15;;;;;;;9.82;9.45;;;24.00;99.90;;;;;;5029245;28;20231;-66
2023/07/01 10:43:42;;;;;;;9.07;8.77;;;23.90;99.90;;;;;;5032204;28;20208;-66
2023/07/01 10:46:11;;;;;;;8.95;8.65;;;23.90;99.90;;;;;;5032043;28;20217;-66
2023/07/01 10:48:39;;;;;;;9.20;8.80;;;24.00;99.90;;;;;;5031888;28;20218;-66
2023/07/01 10:51:10;;;;;;;9.32;9.02;;;24.00;99.90;;;;;;5030500;28;20225;-66
2023/07/01 10:54:02;;;;;;;9.32;9.02;;;24.00;99.90;;;;;;5031062;28;20702;-67
2023/07/01 10:56:31;;;;;;;8.98;8.65;;;24.00;99.90;;;;;;5032312;28;20220;-67
2023/07/01 10:59:20;;;;;;;9.40;9.00;;;24.10;99.90;;;;;;5031744;28;20240;-65
2023/07/01 11:01:49;;;;;;;9.35;9.05;;;24.10;99.90;;;;;;5030213;28;20225;-67
2023/07/01 11:04:16;;;;;;;9.40;9.00;;;24.10;99.90;;;;;;5030631;28;20366;-67
2023/07/01 11:06:49;;;;;;;8.68;8.38;;;24.10;99.90;;;;;;5030843;28;20215;-67
2023/07/01 11:09:16;;;;;;;9.57;9.18;;;24.10;99.90;;;;;;5033467;28;20296;-67
2023/07/01 11:11:43;;;;;;;9.52;9.02;;;24.20;99.90;;;;;;5031280;28;20232;-65
2023/07/01 11:14:12;;;;;;;8.75;8.45;;;24.20;99.90;;;;;;5031361;28;20208;-66
2023/07/01 11:16:40;;;;;;;8.85;8.55;;;24.20;99.90;;;;;;5030645;28;20219;-65
2023/07/01 11:19:08;;;;;;;9.32;9.02;;;24.10;99.90;;;;;;5029847;28;20699;-65
2023/07/01 11:21:35;;;;;;;9.07;8.73;;;24.00;99.90;;;;;;5029030;28;20315;-66
2023/07/01 11:24:05;;;;;;;9.20;8.90;;;24.00;99.90;;;;;;5031517;28;20216;-66
2023/07/01 11:26:33;;;;;;;9.73;9.32;;;23.90;99.90;;;;;;5031600;28;20473;-66
2023/07/01 11:29:01;;;;;;;9.48;9.13;;;23.80;99.90;;;;;;5031127;28;20204;-64
2023/07/01 11:31:31;;;;;;;8.90;8.60;;;23.80;99.90;;;;;;5031031;28;20232;-65
2023/07/01 11:33:59;;;;;;;9.00;8.70;;;23.60;99.90;;;;;;5025537;28;20211;-64
2023/07/01 11:36:35;;;;;;;8.98;8.57;;;23.60;99.90;;;;;;5021904;28;20570;-66
2023/07/01 11:39:10;;;;;;;8.80;8.50;;;23.50;99.90;;;;;;5025186;28;20196;-67
2023/07/01 11:41:38;;;;;;;9.00;8.70;;;23.40;99.90;;;;;;5029135;28;20236;-67
2023/07/01 11:44:08;;;;;;;8.90;8.60;;;23.40;99.90;;;;;;5029909;28;20211;-66
2023/07/01 11:46:37;;;;;;;9.60;9.27;;;23.50;99.90;;;;;;5030439;28;20700;-66
2023/07/01 11:49:15;;;;;;;9.13;8.82;;;23.50;99.90;;;;;;5035504;28;20219;-66
2023/07/01 11:51:43;;;;;;;9.50;9.20;;;23.60;99.90;;;;;;5038665;28;20220;-67
2023/07/01 11:54:11;;;;;;;8.90;8.55;;;23.60;99.90;;;;;;5035102;28;20204;-65
2023/07/01 11:56:38;;;;;;;9.02;8.55;;;23.80;99.90;;;;;;5030193;28;20208;-64
2023/07/01 11:59:05;;;;;;;9.45;9.05;;;23.90;99.90;;;;;;5029266;28;20237;-65
2023/07/01 12:01:32;;;;;;;8.63;8.32;;;24.00;99.90;;;;;;5027316;28;20599;-67
2023/07/01 12:03:59;;;;;;;8.50;8.20;;;24.00;99.90;;;;;;5028986;28;20204;-66
2023/07/01 12:06:27;;;;;;;9.00;8.70;;;24.00;99.90;;;;;;5031105;28;20206;-65
2023/07/01 12:08:56;;;;;;;8.55;8.25;;;24.10;99.90;;;;;;5030889;28;20737;-64
2023/07/01 12:11:25;;;;;;;8.30;8.00;;;24.20;99.90;;;;;;5030035;28;20267;-66
2023/07/01 12:13:52;;;;;;;8.20;7.90;;;24.20;99.90;;;;;;5061241;22;20235;-65
2023/07/01 12:16:19;;;;;;;8.40;8.10;;;24.00;99.90;;;;;;5034602;28;20246;-66
2023/07/01 12:18:46;;;;;;;8.50;8.20;;;24.00;99.90;;;;;;5037059;28;20211;-65
2023/07/01 12:21:13;;;;;;;8.45;8.15;;;24.10;99.90;;;;;;5035897;28;20218;-66
2023/07/01 12:23:42;;;;;;;8.32;8.02;;;24.30;99.90;;;;;;5034085;28;20232;-67
2023/07/01 12:26:09;;;;;;;8.70;8.40;;;24.40;99.90;;;;;;5038390;28;20223;-65
2023/07/01 12:28:38;;;;;;;8.70;8.40;;;24.40;99.90;;;;;;5037547;28;20219;-64
2023/07/01 12:31:05;;;;;;;8.68;8.38;;;24.40;99.90;;;;;;5037584;28;20212;-67
2023/07/01 12:33:32;;;;;;;8.65;8.35;;;24.50;99.90;;;;;;5038570;28;20247;-66
2023/07/01 12:36:00;;;;;;;8.50;8.20;;;24.40;99.90;;;;;;5034059;28;20213;-66
2023/07/01 12:38:28;;;;;;;8.75;8.45;;;24.30;99.90;;;;;;5033990;28;20238;-65